Time;durP1;ratioP1;P1;durP2;ratioP2;P2;SDS_P1;SDS_P2;PMS_P1;PMS_P2;Temp;Humidity;BMP_temperature;BMP_pressure;BME280_temperature;BME280_humidity;BME280_pressure;Samples;Min_cycle;Max_cycle;Signal;HPM_P1;HPM_P2
2022/08/20 00:00:55;;;;;;;2.37;2.07;;;;;;;;;;5067653;28;20639;-63
2022/08/20 00:03:39;;;;;;;2.33;2.10;;;;;;;;;;5041789;28;20217;-64
2022/08/20 00:06:15;;;;;;;4.00;2.10;;;;;;;;;;5055735;28;20334;-63
2022/08/20 00:08:46;;;;;;;2.83;1.80;;;;;;;;;;5066805;28;20250;-63
2022/08/20 00:11:18;;;;;;;2.63;2.20;;;;;;;;;;5047670;28;20681;-63
2022/08/20 00:13:52;;;;;;;2.20;1.97;;;;;;;;;;5042803;28;20664;-64
2022/08/20 00:16:31;;;;;;;2.30;1.93;;;;;;;;;;5061851;28;20198;-64
2022/08/20 00:19:04;;;;;;;2.70;1.80;;;;;;;;;;5062400;28;20288;-64
2022/08/20 00:21:37;;;;;;;2.40;1.83;;;;;;;;;;5043444;28;20793;-64
2022/08/20 00:24:08;;;;;;;2.23;1.93;;;;;;;;;;5042329;28;20685;-63
2022/08/20 00:26:38;;;;;;;2.40;1.90;;;;;;;;;;5058091;28;20215;-63
2022/08/20 00:29:20;;;;;;;2.00;1.90;;;;;;;;;;5065341;28;20193;-64
2022/08/20 00:31:51;;;;;;;2.13;2.00;;;;;;;;;;5068527;28;20716;-64
2022/08/20 00:34:20;;;;;;;3.03;1.60;;;;;;;;;;5065199;28;20243;-63
2022/08/20 00:36:51;;;;;;;2.27;2.00;;;;;;;;;;5060301;28;20217;-63
2022/08/20 00:39:23;;;;;;;1.80;1.70;;;;;;;;;;5066075;28;20197;-63
2022/08/20 00:41:56;;;;;;;1.90;1.70;;;;;;;;;;5064942;28;20193;-63
2022/08/20 00:44:29;;;;;;;2.23;1.80;;;;;;;;;;5068717;28;20191;-63
2022/08/20 00:47:01;;;;;;;2.73;1.70;;;;;;;;;;5064285;28;20298;-63
2022/08/20 00:49:34;;;;;;;1.90;1.80;;;;;;;;;;5044903;28;20208;-64
2022/08/20 00:52:14;;;;;;;1.50;1.40;;;;;;;;;;5055152;28;20197;-64
2022/08/20 00:54:52;;;;;;;2.33;1.80;;;;;;;;;;5056291;28;20197;-63
2022/08/20 00:57:22;;;;;;;2.30;1.83;;;;;;;;;;5063142;28;20193;-63
2022/08/20 00:59:52;;;;;;;1.97;1.77;;;;;;;;;;5045306;28;20234;-63
2022/08/20 01:02:24;;;;;;;1.77;1.63;;;;;;;;;;5066388;28;20201;-63
2022/08/20 01:04:55;;;;;;;3.20;1.70;;;;;;;;;;5049755;28;20209;-62
2022/08/20 01:07:33;;;;;;;1.73;1.63;;;;;;;;;;5065286;28;20241;-63
2022/08/20 01:10:21;;;;;;;2.03;1.70;;;;;;;;;;5067890;28;20221;-62
2022/08/20 01:12:57;;;;;;;2.10;1.43;;;;;;;;;;5045389;28;20216;-62
2022/08/20 01:15:31;;;;;;;1.67;1.57;;;;;;;;;;5076776;28;20205;-62
2022/08/20 01:18:04;;;;;;;1.60;1.50;;;;;;;;;;5042852;28;20194;-63
2022/08/20 01:20:38;;;;;;;1.70;1.60;;;;;;;;;;5067505;28;20536;-63
2022/08/20 01:23:29;;;;;;;1.73;1.63;;;;;;;;;;5054916;28;20248;-63
2022/08/20 01:26:10;;;;;;;1.63;1.53;;;;;;;;;;5033798;28;20270;-64
2022/08/20 01:28:44;;;;;;;1.70;1.60;;;;;;;;;;5068870;28;20193;-63
2022/08/20 01:31:26;;;;;;;1.70;1.50;;;;;;;;;;5068061;28;20186;-63
2022/08/20 01:33:56;;;;;;;1.43;1.33;;;;;;;;;;5060417;28;20678;-63
2022/08/20 01:36:30;;;;;;;1.67;1.57;;;;;;;;;;5047625;28;20218;-63
2022/08/20 01:39:00;;;;;;;1.50;1.40;;;;;;;;;;5062046;28;20195;-64
2022/08/20 01:41:37;;;;;;;2.07;1.40;;;;;;;;;;5040555;28;20648;-64
2022/08/20 01:44:10;;;;;;;2.03;1.50;;;;;;;;;;5046693;28;20191;-64
2022/08/20 01:46:49;;;;;;;1.60;1.50;;;;;;;;;;5062855;28;20225;-64
2022/08/20 01:49:25;;;;;;;1.60;1.50;;;;;;;;;;5042357;28;20212;-64
2022/08/20 01:52:10;;;;;;;1.53;1.43;;;;;;;;;;5049186;28;20252;-63
2022/08/20 01:54:42;;;;;;;3.63;1.60;;;;;;;;;;5062143;28;20750;-64
2022/08/20 01:57:25;;;;;;;1.43;1.33;;;;;;;;;;5056066;28;20582;-64
2022/08/20 01:59:55;;;;;;;1.90;1.37;;;;;;;;;;5027473;28;20245;-63
2022/08/20 02:02:25;;;;;;;1.63;1.53;;;;;;;;;;5040687;28;20649;-63
2022/08/20 02:04:59;;;;;;;1.80;1.57;;;;;;;;;;5023788;28;20675;-63
2022/08/20 02:07:31;;;;;;;1.43;1.33;;;;;;;;;;5035301;28;20218;-63
2022/08/20 02:10:03;;;;;;;2.63;1.60;;;;;;;;;;5040332;28;20556;-64
2022/08/20 02:12:38;;;;;;;1.60;1.50;;;;;;;;;;5034183;28;20556;-63
2022/08/20 02:15:10;;;;;;;2.57;1.57;;;;;;;;;;5047181;28;20209;-64
2022/08/20 02:17:42;;;;;;;2.23;1.53;;;;;;;;;;5014997;28;20202;-63
2022/08/20 02:20:31;;;;;;;1.50;1.40;;;;;;;;;;5033610;28;20187;-64
2022/08/20 02:23:04;;;;;;;1.70;1.60;;;;;;;;;;5040802;28;20198;-63
2022/08/20 02:25:35;;;;;;;1.33;1.23;;;;;;;;;;5039986;28;20771;-63
2022/08/20 02:28:06;;;;;;;1.50;1.40;;;;;;;;;;5027590;28;20197;-63
2022/08/20 02:30:37;;;;;;;2.20;1.57;;;;;;;;;;5030025;28;20241;-63
2022/08/20 02:33:08;;;;;;;2.03;1.50;;;;;;;;;;5034146;28;20202;-63
2022/08/20 02:35:41;;;;;;;1.63;1.53;;;;;;;;;;5031484;28;20538;-64
2022/08/20 02:38:14;;;;;;;1.53;1.43;;;;;;;;;;5036184;28;20214;-63
2022/08/20 02:40:44;;;;;;;1.73;1.47;;;;;;;;;;5028319;28;20186;-63
2022/08/20 02:43:17;;;;;;;2.23;1.60;;;;;;;;;;5039579;28;20209;-63
2022/08/20 02:45:46;;;;;;;1.80;1.40;;;;;;;;;;5029027;28;20206;-64
2022/08/20 02:48:21;;;;;;;2.07;1.50;;;;;;;;;;5040908;28;20729;-64
2022/08/20 02:51:07;;;;;;;1.60;1.50;;;;;;;;;;5046302;28;20796;-64
2022/08/20 02:53:57;;;;;;;3.53;1.47;;;;;;;;;;5038579;28;20198;-64
2022/08/20 02:56:43;;;;;;;1.97;1.77;;;;;;;;;;5034235;28;20249;-64
2022/08/20 02:59:14;;;;;;;2.50;1.50;;;;;;;;;;5042240;28;20684;-64
2022/08/20 03:01:51;;;;;;;1.67;1.57;;;;;;;;;;5079264;28;20209;-64
2022/08/20 03:04:29;;;;;;;2.00;1.37;;;;;;;;;;5082488;28;20201;-64
2022/08/20 03:06:59;;;;;;;1.53;1.30;;;;;;;;;;5075070;28;20684;-63
2022/08/20 03:09:30;;;;;;;1.37;1.27;;;;;;;;;;5077473;28;20197;-64
2022/08/20 03:11:58;;;;;;;1.23;1.10;;;;;;;;;;5069224;28;20650;-63
2022/08/20 03:14:30;;;;;;;1.70;1.30;;;;;;;;;;5078176;28;20190;-63
2022/08/20 03:17:00;;;;;;;1.53;1.40;;;;;;;;;;5077279;28;20200;-64
2022/08/20 03:19:31;;;;;;;1.37;1.20;;;;;;;;;;5076392;28;20201;-64
2022/08/20 03:22:04;;;;;;;1.50;1.40;;;;;;;;;;5059231;28;20204;-63
2022/08/20 03:24:37;;;;;;;1.50;1.40;;;;;;;;;;5070877;28;20245;-63
2022/08/20 03:27:11;;;;;;;1.53;1.40;;;;;;;;;;5084071;28;20220;-63
2022/08/20 03:29:39;;;;;;;1.77;1.43;;;;;;;;;;5078986;28;20205;-64
2022/08/20 03:32:09;;;;;;;1.50;1.40;;;;;;;;;;5071396;28;20782;-63
2022/08/20 03:34:40;;;;;;;3.83;1.57;;;;;;;;;;5070021;28;20517;-64
2022/08/20 03:37:11;;;;;;;1.50;1.40;;;;;;;;;;5063427;28;20210;-64
2022/08/20 03:39:46;;;;;;;1.60;1.50;;;;;;;;;;5063375;28;20200;-64
2022/08/20 03:42:17;;;;;;;1.73;1.63;;;;;;;;;;5070535;28;20243;-63
2022/08/20 03:44:49;;;;;;;2.10;1.40;;;;;;;;;;5068263;28;20228;-63
2022/08/20 03:47:26;;;;;;;1.30;1.20;;;;;;;;;;5074790;28;20221;-64
2022/08/20 03:49:58;;;;;;;1.90;1.40;;;;;;;;;;5061875;28;20217;-63
2022/08/20 03:52:30;;;;;;;1.90;1.40;;;;;;;;;;5062613;28;20276;-63
2022/08/20 03:54:59;;;;;;;1.40;1.30;;;;;;;;;;5077311;28;20674;-63
2022/08/20 03:57:31;;;;;;;1.87;1.40;;;;;;;;;;5088579;28;20518;-63
2022/08/20 04:00:05;;;;;;;1.50;1.40;;;;;;;;;;5048559;28;20237;-63
2022/08/20 04:02:33;;;;;;;1.67;1.30;;;;;;;;;;5053842;28;20202;-64
2022/08/20 04:05:05;;;;;;;2.30;1.57;;;;;;;;;;5054402;28;20403;-63
2022/08/20 04:07:37;;;;;;;1.67;1.37;;;;;;;;;;5061962;28;20217;-63
2022/08/20 04:10:13;;;;;;;1.60;1.40;;;;;;;;;;5065780;28;20197;-63
2022/08/20 04:12:43;;;;;;;1.67;1.43;;;;;;;;;;5059038;28;20213;-63
2022/08/20 04:15:25;;;;;;;1.50;1.40;;;;;;;;;;5057148;28;20231;-64
2022/08/20 04:17:58;;;;;;;1.57;1.27;;;;;;;;;;5059345;28;20197;-63
2022/08/20 04:20:33;;;;;;;2.07;1.50;;;;;;;;;;5061349;28;20193;-64
2022/08/20 04:23:08;;;;;;;1.70;1.60;;;;;;;;;;5066316;28;20292;-63
2022/08/20 04:25:40;;;;;;;1.70;1.60;;;;;;;;;;5059735;28;20234;-64
2022/08/20 04:28:27;;;;;;;2.30;1.70;;;;;;;;;;5063476;28;20261;-63
2022/08/20 04:30:56;;;;;;;1.80;1.60;;;;;;;;;;5076172;28;20213;-63
2022/08/20 04:33:31;;;;;;;2.20;1.77;;;;;;;;;;5061708;28;20741;-64
2022/08/20 04:36:20;;;;;;;2.47;1.70;;;;;;;;;;5069050;28;20722;-64
2022/08/20 04:38:52;;;;;;;1.70;1.60;;;;;;;;;;5056711;28;20209;-65
2022/08/20 04:41:23;;;;;;;2.03;1.83;;;;;;;;;;5060901;28;20210;-64
2022/08/20 04:43:53;;;;;;;1.67;1.50;;;;;;;;;;5066868;28;20229;-63
2022/08/20 04:46:31;;;;;;;1.57;1.47;;;;;;;;;;5060155;28;20742;-65
2022/08/20 04:49:03;;;;;;;3.30;1.70;;;;;;;;;;5064093;28;20202;-65
2022/08/20 04:51:35;;;;;;;2.17;1.63;;;;;;;;;;5060573;28;20217;-63
2022/08/20 04:54:09;;;;;;;1.70;1.43;;;;;;;;;;5056837;28;20747;-64
2022/08/20 04:56:38;;;;;;;1.73;1.63;;;;;;;;;;5070380;28;20266;-65
2022/08/20 04:59:10;;;;;;;2.23;1.67;;;;;;;;;;5035777;28;20234;-65
2022/08/20 05:01:38;;;;;;;2.23;1.83;;;;;;;;;;5027453;28;20202;-64
2022/08/20 05:04:16;;;;;;;2.73;1.87;;;;;;;;;;5032747;28;20274;-65
2022/08/20 05:06:48;;;;;;;3.93;2.63;;;;;;;;;;5045060;28;20260;-66
2022/08/20 05:09:23;;;;;;;4.80;4.30;;;;;;;;;;5048980;28;20209;-66
2022/08/20 05:11:55;;;;;;;6.40;4.10;;;;;;;;;;5050322;28;20190;-67
2022/08/20 05:14:28;;;;;;;5.70;4.57;;;;;;;;;;5047955;28;20210;-66
2022/08/20 05:16:56;;;;;;;7.37;5.10;;;;;;;;;;5045401;28;20200;-63
2022/08/20 05:19:39;;;;;;;8.23;6.63;;;;;;;;;;5044129;28;20568;-63
2022/08/20 05:22:10;;;;;;;7.20;6.23;;;;;;;;;;5045115;28;20237;-67
2022/08/20 05:24:46;;;;;;;9.37;7.40;;;;;;;;;;5039272;28;20285;-67
2022/08/20 05:27:20;;;;;;;9.63;7.90;;;;;;;;;;5039137;28;20241;-63
2022/08/20 05:29:54;;;;;;;10.53;8.83;;;;;;;;;;5046368;28;20527;-63
2022/08/20 05:32:29;;;;;;;11.03;9.63;;;;;;;;;;5045991;28;20210;-64
2022/08/20 05:34:57;;;;;;;12.00;10.20;;;;;;;;;;5031247;28;20195;-64
2022/08/20 05:37:28;;;;;;;12.17;10.97;;;;;;;;;;5039443;28;20546;-64
2022/08/20 05:40:00;;;;;;;11.43;9.50;;;;;;;;;;5036705;28;20205;-63
2022/08/20 05:42:31;;;;;;;13.50;10.07;;;;;;;;;;5039348;28;20264;-63
2022/08/20 05:45:07;;;;;;;11.47;9.57;;;;;;;;;;5042063;28;20186;-63
2022/08/20 05:47:41;;;;;;;11.13;9.53;;;;;;;;;;5024044;28;20267;-64
2022/08/20 05:50:12;;;;;;;14.40;10.47;;;;;;;;;;5032652;28;20250;-63
2022/08/20 05:52:49;;;;;;;14.60;13.03;;;;;;;;;;5029586;28;20631;-64
2022/08/20 05:55:23;;;;;;;18.63;14.70;;;;;;;;;;5017698;28;20203;-66
2022/08/20 05:58:01;;;;;;;16.03;14.43;;;;;;;;;;5034503;28;20678;-67
2022/08/20 06:00:37;;;;;;;17.53;15.73;;;;;;;;;;5053003;28;20241;-66
2022/08/20 06:05:56;;;;;;;16.90;15.30;;;;;;;;;;5063053;28;20206;-67
2022/08/20 06:08:28;;;;;;;17.60;15.80;;;;;;;;;;5063052;28;20202;-67
2022/08/20 06:10:59;;;;;;;18.63;14.43;;;;;;;;;;5059897;28;20216;-67
2022/08/20 06:13:29;;;;;;;21.93;15.90;;;;;;;;;;5058068;28;20214;-67
2022/08/20 06:15:58;;;;;;;18.07;16.13;;;;;;;;;;5055287;28;20208;-67
2022/08/20 06:18:32;;;;;;;22.30;16.57;;;;;;;;;;5059768;28;20209;-68
2022/08/20 06:21:03;;;;;;;23.47;16.80;;;;;;;;;;5053352;28;20194;-64
2022/08/20 06:23:35;;;;;;;18.80;15.87;;;;;;;;;;5040669;28;20210;-64
2022/08/20 06:26:24;;;;;;;17.03;14.60;;;;;;;;;;5053297;28;20260;-64
2022/08/20 06:28:59;;;;;;;16.90;15.10;;;;;;;;;;5044367;28;20683;-64
2022/08/20 06:31:33;;;;;;;21.30;16.00;;;;;;;;;;5058047;28;20205;-64
2022/08/20 06:34:08;;;;;;;18.50;16.53;;;;;;;;;;5059398;28;20618;-64
2022/08/20 06:36:40;;;;;;;19.33;17.33;;;;;;;;;;5066133;28;20198;-65
2022/08/20 06:39:10;;;;;;;19.27;15.53;;;;;;;;;;5042653;28;20222;-66
2022/08/20 06:41:43;;;;;;;18.20;16.10;;;;;;;;;;5064357;28;20193;-68
2022/08/20 06:44:35;;;;;;;21.53;18.07;;;;;;;;;;5061437;28;20197;-68
2022/08/20 06:47:11;;;;;;;18.80;16.27;;;;;;;;;;5061090;28;20220;-64
2022/08/20 06:49:40;;;;;;;20.03;16.13;;;;;;;;;;5052560;28;20205;-66
2022/08/20 06:52:10;;;;;;;20.60;16.17;;;;;;;;;;5050319;28;20201;-67
2022/08/20 06:54:39;;;;;;;18.27;15.57;;;;;;;;;;5067831;28;20197;-66
2022/08/20 06:57:06;;;;;;;18.70;15.50;;;;;;;;;;5065486;28;20217;-68
2022/08/20 06:59:37;;;;;;;19.33;16.03;;;;;;;;;;5048512;28;20321;-65
2022/08/20 07:02:10;;;;;;;22.97;14.57;;;;;;;;;;5018541;28;20195;-64
2022/08/20 07:04:39;;;;;;;21.23;14.33;;;;;;;;;;5046557;28;20214;-64
2022/08/20 07:07:17;;;;;;;20.40;14.70;;;;;;;;;;5045394;28;20298;-63
2022/08/20 07:10:02;;;;;;;22.03;15.10;;;;;;;;;;5047026;28;20202;-64
2022/08/20 07:12:30;;;;;;;19.00;15.03;;;;;;;;;;5035951;28;20789;-64
2022/08/20 07:15:07;;;;;;;18.87;15.30;;;;;;;;;;5047551;28;20240;-66
2022/08/20 07:17:36;;;;;;;21.17;14.83;;;;;;;;;;5046115;28;20205;-64
2022/08/20 07:20:09;;;;;;;19.10;15.23;;;;;;;;;;5021147;28;20264;-65
2022/08/20 07:22:41;;;;;;;19.90;15.37;;;;;;;;;;5038858;28;20522;-66
2022/08/20 07:25:15;;;;;;;24.33;17.77;;;;;;;;;;5059877;28;20205;-66
2022/08/20 07:27:47;;;;;;;20.83;17.40;;;;;;;;;;5042340;28;20238;-66
2022/08/20 07:33:27;;;;;;;24.20;17.77;;;;;;;;;;5026212;28;20617;-69
2022/08/20 07:36:02;;;;;;;23.60;17.93;;;;;;;;;;5023215;28;20664;-68
2022/08/20 07:38:32;;;;;;;21.67;17.03;;;;;;;;;;5037921;28;20214;-64
2022/08/20 07:41:05;;;;;;;23.07;17.83;;;;;;;;;;5045647;28;20636;-66
2022/08/20 07:43:35;;;;;;;20.90;18.27;;;;;;;;;;5024202;28;20715;-66
2022/08/20 07:46:07;;;;;;;20.80;17.00;;;;;;;;;;5041291;28;20205;-64
2022/08/20 07:48:40;;;;;;;22.77;16.93;;;;;;;;;;5042571;28;20249;-64
2022/08/20 07:51:11;;;;;;;19.73;16.37;;;;;;;;;;5039831;28;20530;-65
2022/08/20 07:53:42;;;;;;;20.83;16.00;;;;;;;;;;5028234;28;20222;-66
2022/08/20 07:56:16;;;;;;;17.40;15.37;;;;;;;;;;5044741;28;20609;-63
2022/08/20 07:58:51;;;;;;;20.90;16.27;;;;;;;;;;5031137;28;20763;-63
2022/08/20 08:01:28;;;;;;;22.60;17.53;;;;;;;;;;5061456;28;20355;-66
2022/08/20 08:03:59;;;;;;;19.67;17.53;;;;;;;;;;5056078;28;20214;-66
2022/08/20 08:06:32;;;;;;;18.83;16.50;;;;;;;;;;5067195;28;20637;-66
2022/08/20 08:09:06;;;;;;;25.00;17.83;;;;;;;;;;5061461;28;20642;-66
2022/08/20 08:11:47;;;;;;;20.77;17.20;;;;;;;;;;5064117;28;20212;-66
2022/08/20 08:14:25;;;;;;;19.33;16.60;;;;;;;;;;5049979;28;20193;-66
2022/08/20 08:16:57;;;;;;;19.37;17.37;;;;;;;;;;5052124;28;20197;-67
2022/08/20 08:19:38;;;;;;;21.17;16.80;;;;;;;;;;5068478;28;20201;-66
2022/08/20 08:22:13;;;;;;;20.47;16.93;;;;;;;;;;5059994;28;20542;-64
2022/08/20 08:24:50;;;;;;;18.87;16.97;;;;;;;;;;5051647;28;20198;-63
2022/08/20 08:27:50;;;;;;;20.73;16.30;;;;;;;;;;5055109;28;20226;-66
2022/08/20 08:30:23;;;;;;;17.83;15.83;;;;;;;;;;5057971;28;20663;-63
2022/08/20 08:35:46;;;;;;;18.83;15.70;;;;;;;;;;5062583;28;20185;-66
2022/08/20 08:38:22;;;;;;;17.87;16.00;;;;;;;;;;5056888;28;20190;-66
2022/08/20 08:40:59;;;;;;;17.10;15.30;;;;;;;;;;5060949;28;20204;-63
2022/08/20 08:43:29;;;;;;;22.40;16.37;;;;;;;;;;5040817;28;20229;-65
2022/08/20 08:46:03;;;;;;;18.73;16.43;;;;;;;;;;5046514;28;20670;-66
2022/08/20 08:48:44;;;;;;;20.63;16.73;;;;;;;;;;5064831;28;20220;-68
2022/08/20 08:51:19;;;;;;;21.60;17.50;;;;;;;;;;5060346;28;20206;-68
2022/08/20 08:53:55;;;;;;;19.17;16.23;;;;;;;;;;5061123;28;20611;-71
2022/08/20 08:56:36;;;;;;;19.33;16.00;;;;;;;;;;5038434;28;20193;-68
2022/08/20 08:59:17;;;;;;;21.07;16.30;;;;;;;;;;5064200;28;20263;-68
2022/08/20 09:02:24;;;;;;;20.07;17.57;;;;;;;;;;5052794;28;20938;-65
2022/08/20 09:05:01;;;;;;;21.20;16.97;;;;;;;;;;5059500;28;20233;-67
2022/08/20 09:07:33;;;;;;;24.23;17.87;;;;;;;;;;5042821;28;20205;-67
2022/08/20 09:10:04;;;;;;;20.07;16.83;;;;;;;;;;5039608;28;20210;-67
2022/08/20 09:12:39;;;;;;;20.30;16.27;;;;;;;;;;5056778;28;20197;-68
2022/08/20 09:15:17;;;;;;;18.37;15.70;;;;;;;;;;5041952;28;20206;-66
2022/08/20 09:17:49;;;;;;;18.13;14.60;;;;;;;;;;5066034;28;20201;-63
2022/08/20 09:20:21;;;;;;;17.03;14.17;;;;;;;;;;5064694;28;20197;-65
2022/08/20 09:22:53;;;;;;;17.17;14.27;;;;;;;;;;5069656;28;20624;-67
2022/08/20 09:25:29;;;;;;;17.83;14.43;;;;;;;;;;5039641;28;20217;-67
2022/08/20 09:28:00;;;;;;;15.03;13.43;;;;;;;;;;5059108;28;20236;-67
2022/08/20 09:30:36;;;;;;;16.67;11.80;;;;;;;;;;5061210;28;20264;-62
2022/08/20 09:33:05;;;;;;;18.10;12.47;;;;;;;;;;5058193;28;20194;-62
2022/08/20 09:35:36;;;;;;;14.43;12.17;;;;;;;;;;5053815;28;20197;-62
2022/08/20 09:38:06;;;;;;;12.83;11.40;;;;;;;;;;5053331;28;20194;-62
2022/08/20 09:40:37;;;;;;;15.30;11.87;;;;;;;;;;5027845;28;20206;-66
2022/08/20 09:43:10;;;;;;;14.67;10.93;;;;;;;;;;5050112;28;20208;-66
2022/08/20 09:45:44;;;;;;;16.63;13.00;;;;;;;;;;5059438;28;20201;-67
2022/08/20 09:48:17;;;;;;;16.97;13.00;;;;;;;;;;5058597;28;20279;-67
2022/08/20 09:50:59;;;;;;;14.40;11.80;;;;;;;;;;5044748;28;20217;-63
2022/08/20 09:53:29;;;;;;;12.67;10.23;;;;;;;;;;5045782;28;20199;-66
2022/08/20 09:56:05;;;;;;;14.03;9.50;;;;;;;;;;5061097;28;20724;-66
2022/08/20 09:58:51;;;;;;;12.97;10.47;;;;;;;;;;5052538;28;20210;-67
2022/08/20 10:01:31;;;;;;;12.60;10.43;;;;;;;;;;5053698;28;20279;-66
2022/08/20 10:04:07;;;;;;;11.40;10.13;;;;;;;;;;5053495;28;20218;-67
2022/08/20 10:06:42;;;;;;;13.20;9.70;;;;;;;;;;5056461;28;20197;-63
2022/08/20 10:09:14;;;;;;;12.60;10.10;;;;;;;;;;5066775;28;20220;-63
2022/08/20 10:11:43;;;;;;;15.10;10.53;;;;;;;;;;5056643;28;20541;-67
2022/08/20 10:14:13;;;;;;;13.83;10.37;;;;;;;;;;5042255;28;20190;-68
2022/08/20 10:16:44;;;;;;;14.03;10.50;;;;;;;;;;5063122;28;20190;-66
2022/08/20 10:19:14;;;;;;;13.43;9.40;;;;;;;;;;5047582;28;20201;-67
2022/08/20 10:21:47;;;;;;;12.07;8.03;;;;;;;;;;5061839;28;20237;-63
2022/08/20 10:24:21;;;;;;;12.17;7.00;;;;;;;;;;5059455;28;20634;-63
2022/08/20 10:27:04;;;;;;;10.47;7.33;;;;;;;;;;5058991;28;20773;-66
2022/08/20 10:29:33;;;;;;;9.47;6.60;;;;;;;;;;5057030;28;20230;-66
2022/08/20 10:32:13;;;;;;;8.23;6.73;;;;;;;;;;5061952;28;20194;-63
2022/08/20 10:34:53;;;;;;;9.63;6.43;;;;;;;;;;5064619;28;20623;-63
2022/08/20 10:37:26;;;;;;;11.50;6.30;;;;;;;;;;5059124;28;20186;-66
2022/08/20 10:39:58;;;;;;;10.40;5.90;;;;;;;;;;5055321;28;20333;-67
2022/08/20 10:42:29;;;;;;;10.67;5.90;;;;;;;;;;5066457;28;20562;-67
2022/08/20 10:45:00;;;;;;;9.90;5.30;;;;;;;;;;5063729;28;20198;-67
2022/08/20 10:47:32;;;;;;;9.67;5.23;;;;;;;;;;5053202;28;20583;-68
2022/08/20 10:50:08;;;;;;;6.63;4.40;;;;;;;;;;5039610;28;20217;-67
2022/08/20 10:52:49;;;;;;;8.13;4.67;;;;;;;;;;5056422;28;20229;-63
2022/08/20 10:55:25;;;;;;;6.37;4.20;;;;;;;;;;5058138;28;20208;-67
2022/08/20 10:57:54;;;;;;;13.67;4.53;;;;;;;;;;5055472;28;20193;-67
2022/08/20 11:00:24;;;;;;;6.27;4.00;;;;;;;;;;5059190;28;20232;-67
2022/08/20 11:02:54;;;;;;;7.60;3.80;;;;;;;;;;5055673;28;20213;-66
2022/08/20 11:05:28;;;;;;;8.17;3.80;;;;;;;;;;5063193;28;20189;-66
2022/08/20 11:07:58;;;;;;;6.10;3.63;;;;;;;;;;5053720;28;20289;-67
2022/08/20 11:10:32;;;;;;;4.10;2.60;;;;;;;;;;5056530;28;20206;-67
2022/08/20 11:13:05;;;;;;;5.37;2.80;;;;;;;;;;5063288;28;20622;-67
2022/08/20 11:15:37;;;;;;;6.73;3.20;;;;;;;;;;5052312;28;20310;-66
2022/08/20 11:18:09;;;;;;;6.23;2.87;;;;;;;;;;5060688;28;20198;-66
2022/08/20 11:20:40;;;;;;;6.10;2.90;;;;;;;;;;5071012;28;20229;-63
2022/08/20 11:23:09;;;;;;;6.70;2.80;;;;;;;;;;5065386;28;20243;-63
2022/08/20 11:25:41;;;;;;;5.77;2.87;;;;;;;;;;5066741;28;20235;-66
2022/08/20 11:28:15;;;;;;;6.13;2.73;;;;;;;;;;5065554;28;20205;-67
2022/08/20 11:31:01;;;;;;;8.57;2.87;;;;;;;;;;5050521;28;20213;-67
2022/08/20 11:33:31;;;;;;;9.00;2.90;;;;;;;;;;5048451;28;20277;-66
2022/08/20 11:36:04;;;;;;;7.15;3.10;;;;;;;;;;5027522;28;20547;-67
2022/08/20 11:38:35;;;;;;;6.33;2.53;;;;;;;;;;5063457;28;20233;-69
2022/08/20 11:41:08;;;;;;;5.47;2.80;;;;;;;;;;5075588;28;20622;-69
2022/08/20 11:43:36;;;;;;;4.80;2.70;;;;;;;;;;5070106;28;20666;-70
2022/08/20 11:46:06;;;;;;;6.80;3.03;;;;;;;;;;5067914;28;20204;-66
2022/08/20 11:48:35;;;;;;;6.57;2.53;;;;;;;;;;5066516;28;20664;-66
2022/08/20 11:51:04;;;;;;;6.60;2.40;;;;;;;;;;5066676;28;20201;-68
2022/08/20 11:53:34;;;;;;;5.77;2.83;;;;;;;;;;5066356;28;20811;-69
2022/08/20 11:56:05;;;;;;;6.47;2.53;;;;;;;;;;5067689;28;20205;-69
2022/08/20 11:58:44;;;;;;;5.70;2.30;;;;;;;;;;5071352;28;20212;-67
2022/08/20 12:01:28;;;;;;;5.23;2.20;;;;;;;;;;5066499;28;20220;-63
2022/08/20 12:03:58;;;;;;;6.27;2.70;;;;;;;;;;5062918;28;20198;-64
2022/08/20 12:06:28;;;;;;;8.53;2.30;;;;;;;;;;5067142;28;20213;-64
2022/08/20 12:08:56;;;;;;;6.23;2.57;;;;;;;;;;5070814;28;20518;-66
2022/08/20 12:11:40;;;;;;;3.87;2.27;;;;;;;;;;5055423;28;20189;-64
2022/08/20 12:14:16;;;;;;;6.70;2.60;;;;;;;;;;5060168;28;20197;-64
2022/08/20 12:16:47;;;;;;;5.00;2.80;;;;;;;;;;5069245;28;20658;-65
2022/08/20 12:19:20;;;;;;;6.73;2.60;;;;;;;;;;5063054;28;20208;-66
2022/08/20 12:21:51;;;;;;;5.47;2.63;;;;;;;;;;5037351;28;20202;-65
2022/08/20 12:24:24;;;;;;;5.97;2.73;;;;;;;;;;5078313;28;20275;-65
2022/08/20 12:26:54;;;;;;;5.53;2.97;;;;;;;;;;5063360;28;20221;-66
2022/08/20 12:29:26;;;;;;;7.30;2.63;;;;;;;;;;5066145;28;20225;-66
2022/08/20 12:32:08;;;;;;;7.23;2.77;;;;;;;;;;5065882;28;20637;-65
2022/08/20 12:34:45;;;;;;;5.07;2.50;;;;;;;;;;5046679;28;20193;-64
2022/08/20 12:37:19;;;;;;;4.87;2.90;;;;;;;;;;5065618;28;20198;-64
2022/08/20 12:39:52;;;;;;;7.40;3.60;;;;;;;;;;5056962;28;20803;-65
2022/08/20 12:42:21;;;;;;;5.67;2.67;;;;;;;;;;5063794;28;20198;-64
2022/08/20 12:44:51;;;;;;;7.87;3.17;;;;;;;;;;5066237;28;20189;-65
2022/08/20 12:47:24;;;;;;;8.40;3.57;;;;;;;;;;5066700;28;20263;-64
2022/08/20 12:49:55;;;;;;;6.60;3.50;;;;;;;;;;5067378;28;20213;-67
2022/08/20 12:52:27;;;;;;;6.53;3.20;;;;;;;;;;5058677;28;20209;-65
2022/08/20 12:55:01;;;;;;;6.67;2.90;;;;;;;;;;5050041;28;20243;-65
2022/08/20 12:57:40;;;;;;;5.47;2.83;;;;;;;;;;5065787;28;20383;-63
2022/08/20 13:00:30;;;;;;;18.03;3.20;;;;;;;;;;5047843;28;20221;-63
2022/08/20 13:03:04;;;;;;;6.73;2.80;;;;;;;;;;5058192;28;20691;-63
2022/08/20 13:05:39;;;;;;;7.90;2.93;;;;;;;;;;5055851;28;20284;-63
2022/08/20 13:08:12;;;;;;;7.60;3.13;;;;;;;;;;5034972;28;20209;-63
2022/08/20 13:10:44;;;;;;;6.03;2.87;;;;;;;;;;5040276;28;20216;-65
2022/08/20 13:13:23;;;;;;;4.93;2.80;;;;;;;;;;5056698;28;20276;-65
2022/08/20 13:15:54;;;;;;;4.93;2.37;;;;;;;;;;5061438;28;20204;-65
2022/08/20 13:18:24;;;;;;;5.87;2.30;;;;;;;;;;5054226;28;20229;-65
2022/08/20 13:20:54;;;;;;;5.73;2.67;;;;;;;;;;5056578;28;20231;-63
2022/08/20 13:23:26;;;;;;;6.07;2.83;;;;;;;;;;5062083;28;20202;-62
2022/08/20 13:25:56;;;;;;;5.40;2.60;;;;;;;;;;5066809;28;20201;-63
2022/08/20 13:28:27;;;;;;;5.87;2.40;;;;;;;;;;5054568;28;20213;-63
2022/08/20 13:30:56;;;;;;;6.83;2.83;;;;;;;;;;5065689;28;20697;-65
2022/08/20 13:33:25;;;;;;;7.87;2.97;;;;;;;;;;5063186;28;20530;-65
2022/08/20 13:35:56;;;;;;;6.00;2.30;;;;;;;;;;5048060;28;20195;-65
2022/08/20 13:38:28;;;;;;;6.63;2.87;;;;;;;;;;5057333;28;20296;-65
2022/08/20 13:41:02;;;;;;;6.93;2.73;;;;;;;;;;5065086;28;20197;-68
2022/08/20 13:43:30;;;;;;;5.03;2.40;;;;;;;;;;5063900;28;20297;-68
2022/08/20 13:46:05;;;;;;;5.67;2.63;;;;;;;;;;5061987;28;20197;-63
2022/08/20 13:48:45;;;;;;;6.13;2.50;;;;;;;;;;5065022;28;20182;-63
2022/08/20 13:51:16;;;;;;;8.73;3.23;;;;;;;;;;5060232;28;20210;-65
2022/08/20 13:53:46;;;;;;;8.30;3.90;;;;;;;;;;5063140;28;20686;-65
2022/08/20 13:56:16;;;;;;;8.23;3.83;;;;;;;;;;5054997;28;20194;-67
2022/08/20 13:58:47;;;;;;;10.63;3.17;;;;;;;;;;5041635;28;20661;-67
2022/08/20 14:01:21;;;;;;;5.93;3.00;;;;;;;;;;5058528;28;20225;-63
2022/08/20 14:03:53;;;;;;;8.60;2.93;;;;;;;;;;5057398;28;20289;-63
2022/08/20 14:06:27;;;;;;;7.87;2.80;;;;;;;;;;5071012;28;20197;-63
2022/08/20 14:09:00;;;;;;;7.40;2.77;;;;;;;;;;5057710;28;20525;-63
2022/08/20 14:11:28;;;;;;;6.50;3.00;;;;;;;;;;5057695;28;20197;-64
2022/08/20 14:13:59;;;;;;;8.07;3.17;;;;;;;;;;5053066;28;20600;-64
2022/08/20 14:16:32;;;;;;;11.40;4.57;;;;;;;;;;5061576;28;21034;-65
2022/08/20 14:19:03;;;;;;;6.97;3.50;;;;;;;;;;5066812;28;20277;-65
2022/08/20 14:21:35;;;;;;;8.00;3.77;;;;;;;;;;5061275;28;20863;-67
2022/08/20 14:24:08;;;;;;;12.57;3.70;;;;;;;;;;5055251;28;21132;-67
2022/08/20 14:26:53;;;;;;;8.73;4.50;;;;;;;;;;5066207;28;20209;-65
2022/08/20 14:29:23;;;;;;;9.50;3.90;;;;;;;;;;5059907;28;20225;-65
2022/08/20 14:31:58;;;;;;;8.13;4.43;;;;;;;;;;5066172;28;20190;-65
2022/08/20 14:34:28;;;;;;;6.70;3.90;;;;;;;;;;5061176;28;20212;-64
2022/08/20 14:36:57;;;;;;;6.70;3.20;;;;;;;;;;5035743;28;20233;-65
2022/08/20 14:39:28;;;;;;;5.83;2.87;;;;;;;;;;5061543;28;20276;-65
2022/08/20 14:41:55;;;;;;;6.80;3.00;;;;;;;;;;5064325;28;20197;-63
2022/08/20 14:44:28;;;;;;;6.80;2.87;;;;;;;;;;5068065;28;20208;-63
2022/08/20 14:47:22;;;;;;;7.73;2.73;;;;;;;;;;5063790;28;20205;-62
2022/08/20 14:49:52;;;;;;;7.20;2.93;;;;;;;;;;5065853;28;20222;-62
2022/08/20 14:52:26;;;;;;;7.53;2.63;;;;;;;;;;5046415;28;20580;-62
2022/08/20 14:55:03;;;;;;;5.83;2.57;;;;;;;;;;5044502;28;20205;-62
2022/08/20 14:57:34;;;;;;;7.07;2.90;;;;;;;;;;5051757;28;20215;-67
2022/08/20 15:00:10;;;;;;;7.70;2.60;;;;;;;;;;5060942;28;20241;-67
2022/08/20 15:02:46;;;;;;;8.10;3.37;;;;;;;;;;5049491;28;20224;-67
2022/08/20 15:05:15;;;;;;;5.90;2.97;;;;;;;;;;5062313;28;20213;-67
2022/08/20 15:07:48;;;;;;;7.23;3.47;;;;;;;;;;5044322;28;20627;-67
2022/08/20 15:10:26;;;;;;;6.80;3.13;;;;;;;;;;5039049;28;20217;-67
2022/08/20 15:12:56;;;;;;;9.10;3.47;;;;;;;;;;5063200;28;20201;-66
2022/08/20 15:15:26;;;;;;;6.90;3.00;;;;;;;;;;5042211;28;20217;-65
2022/08/20 15:17:58;;;;;;;5.87;2.60;;;;;;;;;;5059211;28;20197;-65
2022/08/20 15:20:30;;;;;;;8.83;3.40;;;;;;;;;;5051734;28;20210;-63
2022/08/20 15:23:06;;;;;;;6.00;2.90;;;;;;;;;;5047609;28;20221;-63